sensor_id;sensor_type;location;lat;lon;timestamp;pressure;altitude;pressure_sealevel;temperature;humidity
47753;BME280;2038;51.728;6.674;2023-07-09T00:00:01;101112.50;;;25.55;70.18
47753;BME280;2038;51.728;6.674;2023-07-09T00:02:27;101106.34;;;25.53;69.96
47753;BME280;2038;51.728;6.674;2023-07-09T00:04:53;101107.16;;;25.47;70.27
47753;BME280;2038;51.728;6.674;2023-07-09T00:07:26;101106.28;;;25.48;70.33
47753;BME280;2038;51.728;6.674;2023-07-09T00:09:55;101105.44;;;25.49;70.22
47753;BME280;2038;51.728;6.674;2023-07-09T00:12:22;101101.91;;;25.46;70.28
47753;BME280;2038;51.728;6.674;2023-07-09T00:14:49;101105.41;;;25.46;70.32
47753;BME280;2038;51.728;6.674;2023-07-09T00:17:27;101098.44;;;25.47;70.28
47753;BME280;2038;51.728;6.674;2023-07-09T00:19:57;101105.38;;;25.45;70.31
47753;BME280;2038;51.728;6.674;2023-07-09T00:22:24;101108.00;;;25.46;70.79
47753;BME280;2038;51.728;6.674;2023-07-09T00:24:52;101094.81;;;25.34;71.17
47753;BME280;2038;51.728;6.674;2023-07-09T00:27:24;101094.75;;;25.28;71.53
47753;BME280;2038;51.728;6.674;2023-07-09T00:29:54;101093.16;;;25.44;70.80
47753;BME280;2038;51.728;6.674;2023-07-09T00:32:21;101098.38;;;25.41;71.65
47753;BME280;2038;51.728;6.674;2023-07-09T00:34:47;101098.25;;;25.32;72.53
47753;BME280;2038;51.728;6.674;2023-07-09T00:37:16;101092.97;;;25.23;73.33
47753;BME280;2038;51.728;6.674;2023-07-09T00:39:44;101087.66;;;25.15;73.23
47753;BME280;2038;51.728;6.674;2023-07-09T00:42:19;101086.78;;;25.16;73.29
47753;BME280;2038;51.728;6.674;2023-07-09T00:44:50;101078.94;;;25.13;72.82
47753;BME280;2038;51.728;6.674;2023-07-09T00:49:44;101083.28;;;25.14;72.52
47753;BME280;2038;51.728;6.674;2023-07-09T00:52:36;101095.53;;;25.20;72.55
47753;BME280;2038;51.728;6.674;2023-07-09T00:55:11;101090.25;;;25.16;72.60
47753;BME280;2038;51.728;6.674;2023-07-09T00:57:43;101092.00;;;25.14;72.43
47753;BME280;2038;51.728;6.674;2023-07-09T01:00:34;101078.94;;;25.13;72.45
47753;BME280;2038;51.728;6.674;2023-07-09T01:03:21;101079.81;;;25.13;72.59
47753;BME280;2038;51.728;6.674;2023-07-09T01:05:55;101080.72;;;25.15;72.70
47753;BME280;2038;51.728;6.674;2023-07-09T01:08:23;101090.22;;;25.12;72.65
47753;BME280;2038;51.728;6.674;2023-07-09T01:10:51;101090.16;;;25.06;72.80
47753;BME280;2038;51.728;6.674;2023-07-09T01:13:17;101094.44;;;24.99;73.33
47753;BME280;2038;51.728;6.674;2023-07-09T01:15:46;101091.66;;;24.89;74.25
47753;BME280;2038;51.728;6.674;2023-07-09T01:18:13;101094.28;;;24.87;73.68
47753;BME280;2038;51.728;6.674;2023-07-09T01:20:41;101088.88;;;24.77;74.70
47753;BME280;2038;51.728;6.674;2023-07-09T01:23:08;101090.50;;;24.67;75.53
47753;BME280;2038;51.728;6.674;2023-07-09T01:25:37;101088.53;;;24.51;76.26
47753;BME280;2038;51.728;6.674;2023-07-09T01:28:08;101090.97;;;24.40;76.94
47753;BME280;2038;51.728;6.674;2023-07-09T01:30:37;101089.16;;;24.35;77.19
47753;BME280;2038;51.728;6.674;2023-07-09T01:33:06;101090.81;;;24.30;76.94
47753;BME280;2038;51.728;6.674;2023-07-09T01:35:35;101092.50;;;24.28;77.18
47753;BME280;2038;51.728;6.674;2023-07-09T01:38:08;101089.09;;;24.32;76.95
47753;BME280;2038;51.728;6.674;2023-07-09T01:40:34;101095.03;;;24.21;77.23
47753;BME280;2038;51.728;6.674;2023-07-09T01:43:03;101094.13;;;24.18;77.47
47753;BME280;2038;51.728;6.674;2023-07-09T01:45:33;101096.59;;;24.13;77.66
47753;BME280;2038;51.728;6.674;2023-07-09T01:48:01;101098.34;;;24.13;77.72
47753;BME280;2038;51.728;6.674;2023-07-09T01:50:28;101095.69;;;24.10;78.08
47753;BME280;2038;51.728;6.674;2023-07-09T01:52:55;101092.25;;;24.11;78.15
47753;BME280;2038;51.728;6.674;2023-07-09T01:55:22;101098.28;;;24.10;78.48
47753;BME280;2038;51.728;6.674;2023-07-09T01:57:48;101095.88;;;24.19;79.22
47753;BME280;2038;51.728;6.674;2023-07-09T02:00:17;101096.25;;;23.92;81.40
47753;BME280;2038;51.728;6.674;2023-07-09T02:02:46;101093.50;;;23.83;81.97
47753;BME280;2038;51.728;6.674;2023-07-09T02:05:15;101089.81;;;23.72;82.27
47753;BME280;2038;51.728;6.674;2023-07-09T02:07:43;101092.38;;;23.69;81.87
47753;BME280;2038;51.728;6.674;2023-07-09T02:10:11;101091.31;;;23.58;81.88
47753;BME280;2038;51.728;6.674;2023-07-09T02:12:38;101092.16;;;23.57;81.94
47753;BME280;2038;51.728;6.674;2023-07-09T02:15:04;101096.38;;;23.50;82.86
47753;BME280;2038;51.728;6.674;2023-07-09T02:17:31;101095.41;;;23.45;82.76
47753;BME280;2038;51.728;6.674;2023-07-09T02:19:58;101093.28;;;23.26;84.20
47753;BME280;2038;51.728;6.674;2023-07-09T02:22:24;101089.66;;;23.19;84.73
47753;BME280;2038;51.728;6.674;2023-07-09T02:24:50;101094.81;;;23.16;85.18
47753;BME280;2038;51.728;6.674;2023-07-09T02:27:20;101091.19;;;23.07;85.50
47753;BME280;2038;51.728;6.674;2023-07-09T02:29:47;101093.63;;;23.01;85.46
47753;BME280;2038;51.728;6.674;2023-07-09T02:32:19;101095.19;;;22.93;86.12
47753;BME280;2038;51.728;6.674;2023-07-09T02:34:48;101090.06;;;22.96;86.36
47753;BME280;2038;51.728;6.674;2023-07-09T02:37:16;101096.00;;;22.89;86.93
47753;BME280;2038;51.728;6.674;2023-07-09T02:39:45;101100.34;;;22.90;86.44
47753;BME280;2038;51.728;6.674;2023-07-09T02:42:13;101097.69;;;22.88;86.74
47753;BME280;2038;51.728;6.674;2023-07-09T02:44:41;101104.50;;;22.83;86.78
47753;BME280;2038;51.728;6.674;2023-07-09T02:47:09;101103.56;;;22.79;87.09
47753;BME280;2038;51.728;6.674;2023-07-09T02:49:36;101104.47;;;22.80;87.25
47753;BME280;2038;51.728;6.674;2023-07-09T02:52:03;101109.56;;;22.75;88.06
47753;BME280;2038;51.728;6.674;2023-07-09T02:54:30;101104.16;;;22.66;88.53
47753;BME280;2038;51.728;6.674;2023-07-09T02:56:57;101110.53;;;22.80;88.32
47753;BME280;2038;51.728;6.674;2023-07-09T02:59:23;101111.63;;;22.90;86.81
47753;BME280;2038;51.728;6.674;2023-07-09T03:01:51;101111.97;;;22.68;88.25
47753;BME280;2038;51.728;6.674;2023-07-09T03:04:18;101114.06;;;22.84;87.22
47753;BME280;2038;51.728;6.674;2023-07-09T03:06:46;101112.09;;;22.72;87.55
47753;BME280;2038;51.728;6.674;2023-07-09T03:09:13;101119.75;;;22.68;87.93
47753;BME280;2038;51.728;6.674;2023-07-09T03:11:39;101115.16;;;22.55;89.18
47753;BME280;2038;51.728;6.674;2023-07-09T03:14:05;101118.41;;;22.46;89.67
47753;BME280;2038;51.728;6.674;2023-07-09T03:16:33;101121.66;;;22.37;89.94
47753;BME280;2038;51.728;6.674;2023-07-09T03:19:00;101117.91;;;22.25;90.33
47753;BME280;2038;51.728;6.674;2023-07-09T03:21:29;101120.06;;;22.08;91.27
47753;BME280;2038;51.728;6.674;2023-07-09T03:23:56;101121.19;;;21.85;92.59
47753;BME280;2038;51.728;6.674;2023-07-09T03:26:23;101126.13;;;21.74;93.90
47753;BME280;2038;51.728;6.674;2023-07-09T03:28:51;101130.41;;;21.74;93.38
47753;BME280;2038;51.728;6.674;2023-07-09T03:31:18;101131.31;;;21.74;93.44
47753;BME280;2038;51.728;6.674;2023-07-09T03:33:47;101135.88;;;21.84;92.92
47753;BME280;2038;51.728;6.674;2023-07-09T03:36:14;101129.94;;;21.88;92.35
47753;BME280;2038;51.728;6.674;2023-07-09T03:38:40;101127.22;;;21.84;92.64
47753;BME280;2038;51.728;6.674;2023-07-09T03:41:07;101130.41;;;21.74;93.47
47753;BME280;2038;51.728;6.674;2023-07-09T03:43:33;101130.28;;;21.69;93.76
47753;BME280;2038;51.728;6.674;2023-07-09T03:45:59;101128.38;;;21.62;93.92
47753;BME280;2038;51.728;6.674;2023-07-09T03:48:25;101123.72;;;21.83;93.34
47753;BME280;2038;51.728;6.674;2023-07-09T03:50:51;101136.56;;;21.77;93.53
47753;BME280;2038;51.728;6.674;2023-07-09T03:53:18;101123.72;;;21.82;93.10
47753;BME280;2038;51.728;6.674;2023-07-09T03:55:50;101135.88;;;21.84;93.00
47753;BME280;2038;51.728;6.674;2023-07-09T03:58:18;101127.28;;;21.87;92.74
47753;BME280;2038;51.728;6.674;2023-07-09T04:00:44;101134.09;;;21.82;92.84
47753;BME280;2038;51.728;6.674;2023-07-09T04:03:10;101131.78;;;21.92;92.60
47753;BME280;2038;51.728;6.674;2023-07-09T04:05:37;101129.41;;;22.00;92.34
47753;BME280;2038;51.728;6.674;2023-07-09T04:08:03;101130.22;;;21.98;92.10
47753;BME280;2038;51.728;6.674;2023-07-09T04:10:31;101131.72;;;21.91;92.68
47753;BME280;2038;51.728;6.674;2023-07-09T04:12:57;101130.03;;;21.91;93.25
47753;BME280;2038;51.728;6.674;2023-07-09T04:15:24;101131.78;;;21.92;92.72
47753;BME280;2038;51.728;6.674;2023-07-09T04:17:50;101127.50;;;21.93;92.96
47753;BME280;2038;51.728;6.674;2023-07-09T04:20:17;101124.13;;;21.97;92.92
47753;BME280;2038;51.728;6.674;2023-07-09T04:22:44;101129.63;;;22.09;92.48
47753;BME280;2038;51.728;6.674;2023-07-09T04:25:12;101127.16;;;22.14;92.82
47753;BME280;2038;51.728;6.674;2023-07-09T04:27:39;101137.03;;;22.28;92.39
47753;BME280;2038;51.728;6.674;2023-07-09T04:30:15;101130.28;;;22.36;91.86
47753;BME280;2038;51.728;6.674;2023-07-09T04:32:42;101130.47;;;22.44;91.69
47753;BME280;2038;51.728;6.674;2023-07-09T04:35:10;101130.03;;;22.62;91.30
47753;BME280;2038;51.728;6.674;2023-07-09T04:37:38;101132.16;;;22.78;90.68
47753;BME280;2038;51.728;6.674;2023-07-09T04:40:07;101134.97;;;22.89;90.69
47753;BME280;2038;51.728;6.674;2023-07-09T04:42:36;101132.34;;;22.87;90.41
47753;BME280;2038;51.728;6.674;2023-07-09T04:45:05;101134.25;;;22.94;90.77
47753;BME280;2038;51.728;6.674;2023-07-09T04:47:32;101133.63;;;23.07;90.62
47753;BME280;2038;51.728;6.674;2023-07-09T04:49:59;101136.56;;;23.22;89.60
47753;BME280;2038;51.728;6.674;2023-07-09T04:52:25;101139.44;;;23.36;89.32
47753;BME280;2038;51.728;6.674;2023-07-09T04:54:51;101138.03;;;23.50;89.14
47753;BME280;2038;51.728;6.674;2023-07-09T04:57:19;101137.47;;;23.66;88.63
47753;BME280;2038;51.728;6.674;2023-07-09T04:59:45;101137.81;;;23.86;88.04
47753;BME280;2038;51.728;6.674;2023-07-09T05:02:11;101134.63;;;24.04;87.36
47753;BME280;2038;51.728;6.674;2023-07-09T05:04:38;101137.63;;;24.25;87.02
47753;BME280;2038;51.728;6.674;2023-07-09T05:07:04;101140.72;;;24.55;85.93
47753;BME280;2038;51.728;6.674;2023-07-09T05:09:31;101142.75;;;24.76;85.65
47753;BME280;2038;51.728;6.674;2023-07-09T05:11:58;101147.47;;;25.01;84.80
47753;BME280;2038;51.728;6.674;2023-07-09T05:14:27;101145.16;;;25.24;84.47
47753;BME280;2038;51.728;6.674;2023-07-09T05:16:53;101149.84;;;25.52;83.09
47753;BME280;2038;51.728;6.674;2023-07-09T05:19:20;101154.50;;;25.79;82.37
47753;BME280;2038;51.728;6.674;2023-07-09T05:21:46;101146.81;;;25.96;82.35
47753;BME280;2038;51.728;6.674;2023-07-09T05:24:12;101151.13;;;25.88;79.93
47753;BME280;2038;51.728;6.674;2023-07-09T05:26:38;101142.44;;;25.93;79.37
47753;BME280;2038;51.728;6.674;2023-07-09T05:29:05;101141.69;;;26.03;78.69
47753;BME280;2038;51.728;6.674;2023-07-09T05:31:32;101148.81;;;26.21;79.27
47753;BME280;2038;51.728;6.674;2023-07-09T05:34:00;101138.38;;;26.23;78.62
47753;BME280;2038;51.728;6.674;2023-07-09T05:36:27;101144.50;;;26.26;77.42
47753;BME280;2038;51.728;6.674;2023-07-09T05:38:55;101136.56;;;26.16;77.36
47753;BME280;2038;51.728;6.674;2023-07-09T05:41:21;101141.91;;;26.28;77.78
47753;BME280;2038;51.728;6.674;2023-07-09T05:43:50;101142.72;;;26.21;77.10
47753;BME280;2038;51.728;6.674;2023-07-09T05:46:18;101142.81;;;26.34;76.89
47753;BME280;2038;51.728;6.674;2023-07-09T05:48:45;101147.34;;;26.55;77.74
47753;BME280;2038;51.728;6.674;2023-07-09T05:51:11;101150.91;;;26.68;76.72
47753;BME280;2038;51.728;6.674;2023-07-09T05:53:38;101149.28;;;26.86;75.82
47753;BME280;2038;51.728;6.674;2023-07-09T05:56:05;101151.94;;;26.91;76.34
47753;BME280;2038;51.728;6.674;2023-07-09T05:58:32;101159.78;;;26.91;76.41
47753;BME280;2038;51.728;6.674;2023-07-09T06:00:58;101164.91;;;26.76;76.25
47753;BME280;2038;51.728;6.674;2023-07-09T06:03:26;101167.56;;;26.83;76.87
47753;BME280;2038;51.728;6.674;2023-07-09T06:05:53;101170.25;;;26.88;77.51
47753;BME280;2038;51.728;6.674;2023-07-09T06:08:20;101160.66;;;26.91;76.67
47753;BME280;2038;51.728;6.674;2023-07-09T06:10:52;101167.69;;;27.02;76.57
47753;BME280;2038;51.728;6.674;2023-07-09T06:13:18;101165.16;;;27.15;76.83
47753;BME280;2038;51.728;6.674;2023-07-09T06:15:47;101174.78;;;27.27;76.20
47753;BME280;2038;51.728;6.674;2023-07-09T06:18:14;101171.41;;;27.49;76.69
47753;BME280;2038;51.728;6.674;2023-07-09T06:20:40;101172.34;;;27.75;75.92
47753;BME280;2038;51.728;6.674;2023-07-09T06:23:06;101180.25;;;27.92;73.81
47753;BME280;2038;51.728;6.674;2023-07-09T06:25:33;101182.00;;;27.91;73.73
47753;BME280;2038;51.728;6.674;2023-07-09T06:27:59;101182.84;;;27.98;73.82
47753;BME280;2038;51.728;6.674;2023-07-09T06:30:26;101182.03;;;28.17;73.64
47753;BME280;2038;51.728;6.674;2023-07-09T06:32:52;101179.41;;;28.19;73.92
47753;BME280;2038;51.728;6.674;2023-07-09T06:35:18;101181.16;;;28.35;73.01
47753;BME280;2038;51.728;6.674;2023-07-09T06:37:44;101182.06;;;28.23;72.82
47753;BME280;2038;51.728;6.674;2023-07-09T06:40:11;101179.41;;;28.14;73.12
47753;BME280;2038;51.728;6.674;2023-07-09T06:42:38;101182.06;;;28.28;72.28
47753;BME280;2038;51.728;6.674;2023-07-09T06:45:05;101182.03;;;28.26;72.09
47753;BME280;2038;51.728;6.674;2023-07-09T06:47:32;101183.81;;;28.32;73.41
47753;BME280;2038;51.728;6.674;2023-07-09T06:49:58;101183.78;;;28.40;73.69
47753;BME280;2038;51.728;6.674;2023-07-09T06:52:24;101182.91;;;28.45;73.46
47753;BME280;2038;51.728;6.674;2023-07-09T06:54:50;101182.00;;;28.63;74.38
47753;BME280;2038;51.728;6.674;2023-07-09T06:57:16;101186.38;;;28.73;73.54
47753;BME280;2038;51.728;6.674;2023-07-09T06:59:43;101189.00;;;28.87;72.56
47753;BME280;2038;51.728;6.674;2023-07-09T07:02:09;101192.50;;;28.89;72.02
47753;BME280;2038;51.728;6.674;2023-07-09T07:04:35;101184.63;;;28.87;72.16
47753;BME280;2038;51.728;6.674;2023-07-09T07:07:01;101196.88;;;28.93;71.57
47753;BME280;2038;51.728;6.674;2023-07-09T07:09:29;101186.34;;;28.99;72.03
47753;BME280;2038;51.728;6.674;2023-07-09T07:11:55;101186.31;;;29.08;71.54
47753;BME280;2038;51.728;6.674;2023-07-09T07:14:21;101188.88;;;29.23;72.12
47753;BME280;2038;51.728;6.674;2023-07-09T07:16:48;101184.47;;;29.34;71.85
47753;BME280;2038;51.728;6.674;2023-07-09T07:19:14;101194.94;;;29.48;71.75
47753;BME280;2038;51.728;6.674;2023-07-09T07:21:40;101187.91;;;29.50;70.56
47753;BME280;2038;51.728;6.674;2023-07-09T07:24:07;101191.38;;;29.61;69.46
47753;BME280;2038;51.728;6.674;2023-07-09T07:26:33;101187.81;;;29.68;69.42
47753;BME280;2038;51.728;6.674;2023-07-09T07:28:59;101185.16;;;29.71;70.91
47753;BME280;2038;51.728;6.674;2023-07-09T07:31:25;101184.28;;;29.75;71.67
47753;BME280;2038;51.728;6.674;2023-07-09T07:33:52;101178.91;;;29.96;70.61
47753;BME280;2038;51.728;6.674;2023-07-09T07:36:18;101177.09;;;30.03;70.36
47753;BME280;2038;51.728;6.674;2023-07-09T07:38:44;101172.66;;;30.11;71.75
47753;BME280;2038;51.728;6.674;2023-07-09T07:41:10;101178.81;;;30.07;71.28
47753;BME280;2038;51.728;6.674;2023-07-09T07:43:36;101179.59;;;30.19;70.18
47753;BME280;2038;51.728;6.674;2023-07-09T07:46:03;101177.84;;;30.20;69.54
47753;BME280;2038;51.728;6.674;2023-07-09T07:48:29;101175.97;;;30.36;70.49
47753;BME280;2038;51.728;6.674;2023-07-09T07:51:00;101175.84;;;30.52;69.96
47753;BME280;2038;51.728;6.674;2023-07-09T07:53:27;101182.44;;;30.90;69.09
47753;BME280;2038;51.728;6.674;2023-07-09T07:55:56;101177.31;;;30.78;69.70
47753;BME280;2038;51.728;6.674;2023-07-09T07:58:23;101169.47;;;30.76;69.93
47753;BME280;2038;51.728;6.674;2023-07-09T08:00:49;101181.69;;;30.80;68.86
47753;BME280;2038;51.728;6.674;2023-07-09T08:03:20;101173.72;;;30.89;68.79
47753;BME280;2038;51.728;6.674;2023-07-09T08:05:49;101173.63;;;30.94;67.38
47753;BME280;2038;51.728;6.674;2023-07-09T08:08:16;101172.75;;;30.95;67.46
47753;BME280;2038;51.728;6.674;2023-07-09T08:10:43;101171.03;;;30.91;66.74
47753;BME280;2038;51.728;6.674;2023-07-09T08:13:09;101169.19;;;31.02;66.74
47753;BME280;2038;51.728;6.674;2023-07-09T08:15:36;101169.81;;;31.22;66.58
47753;BME280;2038;51.728;6.674;2023-07-09T08:18:02;101170.63;;;31.29;65.91
47753;BME280;2038;51.728;6.674;2023-07-09T08:20:28;101161.91;;;31.24;65.47
47753;BME280;2038;51.728;6.674;2023-07-09T08:22:55;101166.84;;;31.49;66.15
47753;BME280;2038;51.728;6.674;2023-07-09T08:25:21;101167.53;;;31.64;65.99
47753;BME280;2038;51.728;6.674;2023-07-09T08:27:47;101164.13;;;31.55;65.62
47753;BME280;2038;51.728;6.674;2023-07-09T08:30:13;101164.94;;;31.61;65.37
47753;BME280;2038;51.728;6.674;2023-07-09T08:32:39;101169.13;;;31.74;64.73
47753;BME280;2038;51.728;6.674;2023-07-09T08:35:06;101166.59;;;32.26;64.54
47753;BME280;2038;51.728;6.674;2023-07-09T08:37:33;101160.38;;;32.30;64.95
47753;BME280;2038;51.728;6.674;2023-07-09T08:39:59;101159.72;;;32.16;62.36
47753;BME280;2038;51.728;6.674;2023-07-09T08:42:40;101149.00;;;32.25;63.29
47753;BME280;2038;51.728;6.674;2023-07-09T08:48:25;101150.34;;;32.47;63.04
47753;BME280;2038;51.728;6.674;2023-07-09T08:51:00;101158.13;;;32.56;61.51
47753;BME280;2038;51.728;6.674;2023-07-09T08:53:49;101164.06;;;32.69;62.12
47753;BME280;2038;51.728;6.674;2023-07-09T08:56:24;101164.81;;;32.77;60.60
47753;BME280;2038;51.728;6.674;2023-07-09T08:58:55;101161.78;;;32.95;59.22
47753;BME280;2038;51.728;6.674;2023-07-09T09:01:40;101165.91;;;33.08;59.72
47753;BME280;2038;51.728;6.674;2023-07-09T09:04:21;101163.94;;;33.21;58.53
47753;BME280;2038;51.728;6.674;2023-07-09T09:07:44;101161.44;;;33.12;58.66
47753;BME280;2038;51.728;6.674;2023-07-09T09:10:17;101163.19;;;33.14;57.45
47753;BME280;2038;51.728;6.674;2023-07-09T09:13:08;101159.63;;;33.17;57.31
47753;BME280;2038;51.728;6.674;2023-07-09T09:15:40;101158.81;;;33.53;57.94
47753;BME280;2038;51.728;6.674;2023-07-09T09:18:20;101147.38;;;33.13;57.84
47753;BME280;2038;51.728;6.674;2023-07-09T09:21:07;101149.22;;;33.06;59.10
47753;BME280;2038;51.728;6.674;2023-07-09T09:23:40;101143.94;;;33.06;58.69
47753;BME280;2038;51.728;6.674;2023-07-09T09:26:18;101150.91;;;33.10;57.84
47753;BME280;2038;51.728;6.674;2023-07-09T09:28:49;101153.53;;;33.13;57.12
47753;BME280;2038;51.728;6.674;2023-07-09T09:31:17;101150.84;;;33.15;58.08
47753;BME280;2038;51.728;6.674;2023-07-09T09:33:46;101150.56;;;33.27;57.90
47753;BME280;2038;51.728;6.674;2023-07-09T09:36:17;101148.59;;;33.38;57.80
47753;BME280;2038;51.728;6.674;2023-07-09T09:38:52;101143.16;;;33.44;56.33
47753;BME280;2038;51.728;6.674;2023-07-09T09:41:22;101148.41;;;33.46;57.78
47753;BME280;2038;51.728;6.674;2023-07-09T09:43:53;101144.81;;;33.50;56.73
47753;BME280;2038;51.728;6.674;2023-07-09T09:46:22;101138.47;;;33.55;56.62
47753;BME280;2038;51.728;6.674;2023-07-09T09:49:00;101130.31;;;33.67;57.75
47753;BME280;2038;51.728;6.674;2023-07-09T09:51:27;101127.56;;;33.72;56.56
47753;BME280;2038;51.728;6.674;2023-07-09T09:54:01;101123.78;;;33.82;56.79
47753;BME280;2038;51.728;6.674;2023-07-09T09:56:30;101121.63;;;33.98;56.60
47753;BME280;2038;51.728;6.674;2023-07-09T09:59:00;101120.78;;;33.96;56.78
47753;BME280;2038;51.728;6.674;2023-07-09T10:01:31;101122.31;;;34.06;56.16
47753;BME280;2038;51.728;6.674;2023-07-09T10:04:02;101130.94;;;34.14;57.43
47753;BME280;2038;51.728;6.674;2023-07-09T10:06:55;101129.69;;;34.28;55.32
47753;BME280;2038;51.728;6.674;2023-07-09T10:09:53;101148.72;;;34.43;53.41
47753;BME280;2038;51.728;6.674;2023-07-09T10:12:50;101138.13;;;34.43;53.93
47753;BME280;2038;51.728;6.674;2023-07-09T10:18:36;101138.75;;;34.52;55.42
47753;BME280;2038;51.728;6.674;2023-07-09T10:24:38;101122.88;;;34.51;53.51
47753;BME280;2038;51.728;6.674;2023-07-09T10:27:16;101119.56;;;34.44;53.09
47753;BME280;2038;51.728;6.674;2023-07-09T10:33:08;101118.25;;;34.59;53.81
47753;BME280;2038;51.728;6.674;2023-07-09T10:39:09;101115.47;;;34.65;53.36
47753;BME280;2038;51.728;6.674;2023-07-09T10:41:43;101109.94;;;34.74;54.63
47753;BME280;2038;51.728;6.674;2023-07-09T10:44:19;101107.94;;;34.82;53.55
47753;BME280;2038;51.728;6.674;2023-07-09T10:46:57;101111.16;;;34.92;53.34
47753;BME280;2038;51.728;6.674;2023-07-09T10:49:34;101121.97;;;35.15;52.57
47753;BME280;2038;51.728;6.674;2023-07-09T10:52:19;101123.81;;;35.11;52.72
47753;BME280;2038;51.728;6.674;2023-07-09T10:55:04;101124.50;;;35.19;51.58
47753;BME280;2038;51.728;6.674;2023-07-09T10:58:00;101121.78;;;35.22;53.78
47753;BME280;2038;51.728;6.674;2023-07-09T11:00:36;101113.88;;;35.21;52.20
47753;BME280;2038;51.728;6.674;2023-07-09T11:03:20;101110.56;;;35.11;51.44
47753;BME280;2038;51.728;6.674;2023-07-09T11:05:53;101103.78;;;35.32;51.95
47753;BME280;2038;51.728;6.674;2023-07-09T11:08:30;101111.47;;;35.41;51.98
47753;BME280;2038;51.728;6.674;2023-07-09T11:11:04;101103.66;;;35.37;50.30
47753;BME280;2038;51.728;6.674;2023-07-09T11:13:47;101089.38;;;35.11;49.08
47753;BME280;2038;51.728;6.674;2023-07-09T11:16:37;101091.13;;;35.14;51.17
47753;BME280;2038;51.728;6.674;2023-07-09T11:19:16;101080.31;;;35.20;51.79
47753;BME280;2038;51.728;6.674;2023-07-09T11:22:05;101070.16;;;35.34;49.83
47753;BME280;2038;51.728;6.674;2023-07-09T11:25:13;101066.38;;;35.41;50.62
47753;BME280;2038;51.728;6.674;2023-07-09T11:27:52;101061.66;;;35.51;50.41
47753;BME280;2038;51.728;6.674;2023-07-09T11:30:28;101051.63;;;35.59;50.62
47753;BME280;2038;51.728;6.674;2023-07-09T11:33:04;101061.41;;;35.58;50.19
47753;BME280;2038;51.728;6.674;2023-07-09T11:38:19;101056.56;;;35.71;48.50
47753;BME280;2038;51.728;6.674;2023-07-09T11:40:54;101046.41;;;35.84;49.12
47753;BME280;2038;51.728;6.674;2023-07-09T11:43:32;101043.00;;;35.80;49.69
47753;BME280;2038;51.728;6.674;2023-07-09T11:46:43;101046.50;;;35.82;49.68
47753;BME280;2038;51.728;6.674;2023-07-09T11:49:01;101049.31;;;36.02;48.97
47753;BME280;2038;51.728;6.674;2023-07-09T11:51:42;101053.03;;;36.23;49.52
47753;BME280;2038;51.728;6.674;2023-07-09T11:54:12;101065.44;;;36.23;47.76
47753;BME280;2038;51.728;6.674;2023-07-09T11:56:39;101060.91;;;36.26;48.16
47753;BME280;2038;51.728;6.674;2023-07-09T11:59:07;101059.88;;;36.30;47.89
47753;BME280;2038;51.728;6.674;2023-07-09T12:01:47;101064.34;;;36.28;47.38
47753;BME280;2038;51.728;6.674;2023-07-09T12:04:19;101068.63;;;36.32;47.16
47753;BME280;2038;51.728;6.674;2023-07-09T12:06:48;101069.03;;;36.22;47.81
47753;BME280;2038;51.728;6.674;2023-07-09T12:09:20;101067.94;;;36.01;47.24
47753;BME280;2038;51.728;6.674;2023-07-09T12:11:48;101072.66;;;35.93;48.48
47753;BME280;2038;51.728;6.674;2023-07-09T12:14:18;101078.31;;;35.82;47.54
47753;BME280;2038;51.728;6.674;2023-07-09T12:16:49;101080.38;;;35.74;47.65
47753;BME280;2038;51.728;6.674;2023-07-09T12:19:20;101083.00;;;36.00;47.49
47753;BME280;2038;51.728;6.674;2023-07-09T12:21:57;101079.09;;;36.12;48.09
47753;BME280;2038;51.728;6.674;2023-07-09T12:24:35;101078.34;;;36.33;48.96
47753;BME280;2038;51.728;6.674;2023-07-09T12:27:36;101078.09;;;36.64;45.86
47753;BME280;2038;51.728;6.674;2023-07-09T12:30:09;101075.13;;;36.73;44.33
47753;BME280;2038;51.728;6.674;2023-07-09T12:32:44;101065.94;;;36.82;43.84
47753;BME280;2038;51.728;6.674;2023-07-09T12:35:14;101071.38;;;36.79;44.52
47753;BME280;2038;51.728;6.674;2023-07-09T12:37:42;101064.50;;;36.73;44.38
47753;BME280;2038;51.728;6.674;2023-07-09T12:40:15;101053.41;;;36.62;44.52
47753;BME280;2038;51.728;6.674;2023-07-09T12:42:45;101065.06;;;36.56;45.04
47753;BME280;2038;51.728;6.674;2023-07-09T12:45:20;101061.13;;;36.43;44.78
47753;BME280;2038;51.728;6.674;2023-07-09T12:47:48;101050.88;;;36.34;44.93
47753;BME280;2038;51.728;6.674;2023-07-09T12:52:56;101055.00;;;36.18;45.15
47753;BME280;2038;51.728;6.674;2023-07-09T12:55:28;101051.16;;;36.27;46.26
47753;BME280;2038;51.728;6.674;2023-07-09T12:57:58;101040.53;;;36.27;46.39
47753;BME280;2038;51.728;6.674;2023-07-09T13:00:32;101042.59;;;36.19;46.21
47753;BME280;2038;51.728;6.674;2023-07-09T13:02:59;101045.63;;;36.06;45.15
47753;BME280;2038;51.728;6.674;2023-07-09T13:05:26;101035.59;;;36.16;45.83
47753;BME280;2038;51.728;6.674;2023-07-09T13:08:02;101025.06;;;36.13;46.16
47753;BME280;2038;51.728;6.674;2023-07-09T13:10:30;101022.78;;;36.27;46.56
47753;BME280;2038;51.728;6.674;2023-07-09T13:13:05;101026.22;;;36.54;45.85
47753;BME280;2038;51.728;6.674;2023-07-09T13:15:44;101019.88;;;36.81;45.08
47753;BME280;2038;51.728;6.674;2023-07-09T13:18:25;101009.84;;;36.66;46.66
47753;BME280;2038;51.728;6.674;2023-07-09T13:20:53;101006.97;;;36.47;46.00
47753;BME280;2038;51.728;6.674;2023-07-09T13:23:28;101000.88;;;36.45;44.54
47753;BME280;2038;51.728;6.674;2023-07-09T13:25:58;101003.06;;;36.59;46.75
47753;BME280;2038;51.728;6.674;2023-07-09T13:28:29;101000.31;;;36.61;45.82
47753;BME280;2038;51.728;6.674;2023-07-09T13:30:59;101004.72;;;36.62;45.58
47753;BME280;2038;51.728;6.674;2023-07-09T13:33:34;100994.69;;;36.45;46.05
47753;BME280;2038;51.728;6.674;2023-07-09T13:36:00;100990.66;;;36.35;45.81
47753;BME280;2038;51.728;6.674;2023-07-09T13:38:26;100992.72;;;36.27;45.82
47753;BME280;2038;51.728;6.674;2023-07-09T13:40:56;100987.13;;;36.34;46.76